createdAt,value
2023-01-22T00:01:09.319Z,100.00
2023-01-22T00:03:37.724Z,100.00
2023-01-22T00:06:05.652Z,100.00
2023-01-22T00:08:34.560Z,100.00
2023-01-22T00:11:02.248Z,100.00
2023-01-22T00:13:29.411Z,100.00
2023-01-22T00:16:00.184Z,100.00
2023-01-22T00:18:27.619Z,100.00
2023-01-22T00:20:55.958Z,100.00
2023-01-22T00:23:24.390Z,100.00
2023-01-22T00:26:05.039Z,100.00
2023-01-22T00:28:32.385Z,100.00
2023-01-22T00:31:04.821Z,100.00
2023-01-22T00:33:33.390Z,100.00
2023-01-22T00:36:20.103Z,100.00
2023-01-22T00:38:47.576Z,100.00
2023-01-22T00:41:16.204Z,100.00
2023-01-22T00:43:43.310Z,100.00
2023-01-22T00:46:14.213Z,100.00
2023-01-22T00:48:41.792Z,100.00
2023-01-22T00:51:09.329Z,100.00
2023-01-22T00:53:37.541Z,100.00
2023-01-22T00:56:05.874Z,100.00
2023-01-22T00:58:32.685Z,100.00
2023-01-22T01:01:01.983Z,100.00
2023-01-22T01:03:33.105Z,100.00
2023-01-22T01:06:04.184Z,100.00
2023-01-22T01:08:36.884Z,100.00
2023-01-22T01:11:22.097Z,100.00
2023-01-22T01:13:51.146Z,100.00
2023-01-22T01:16:29.801Z,100.00
2023-01-22T01:19:01.648Z,100.00
2023-01-22T01:21:29.211Z,100.00
2023-01-22T01:23:58.100Z,100.00
2023-01-22T01:26:26.159Z,100.00
2023-01-22T01:28:53.155Z,100.00
2023-01-22T01:31:22.793Z,100.00
2023-01-22T01:33:50.221Z,100.00
2023-01-22T01:36:46.268Z,100.00
2023-01-22T01:39:10.867Z,100.00
2023-01-22T01:41:37.717Z,100.00
2023-01-22T01:44:18.011Z,100.00
2023-01-22T01:46:50.694Z,100.00
2023-01-22T01:49:26.346Z,100.00
2023-01-22T01:51:57.340Z,100.00
2023-01-22T01:54:24.570Z,100.00
2023-01-22T01:56:59.640Z,100.00
2023-01-22T01:59:27.686Z,100.00
2023-01-22T02:01:56.125Z,100.00
2023-01-22T02:04:24.531Z,100.00
2023-01-22T02:06:51.342Z,100.00
2023-01-22T02:09:18.592Z,100.00
2023-01-22T02:11:45.672Z,100.00
2023-01-22T02:14:18.818Z,100.00
2023-01-22T02:16:45.865Z,100.00
2023-01-22T02:19:12.720Z,100.00
2023-01-22T02:21:41.338Z,100.00
2023-01-22T02:24:12.429Z,100.00
2023-01-22T02:26:40.979Z,100.00
2023-01-22T02:29:09.626Z,100.00
2023-01-22T02:31:38.212Z,100.00
2023-01-22T02:34:06.699Z,100.00
2023-01-22T02:36:36.970Z,100.00
2023-01-22T02:39:05.088Z,100.00
2023-01-22T02:41:32.640Z,100.00
2023-01-22T02:43:59.810Z,100.00
2023-01-22T02:46:26.701Z,100.00
2023-01-22T02:48:53.598Z,100.00
2023-01-22T02:51:20.533Z,100.00
2023-01-22T02:53:47.364Z,100.00
2023-01-22T02:56:14.373Z,100.00
2023-01-22T02:58:41.361Z,100.00
2023-01-22T03:01:22.667Z,100.00
2023-01-22T03:03:52.964Z,100.00
2023-01-22T03:06:22.680Z,100.00
2023-01-22T03:08:53.219Z,100.00
2023-01-22T03:11:20.514Z,100.00
2023-01-22T03:14:05.738Z,100.00
2023-01-22T03:16:52.095Z,100.00
2023-01-22T03:19:39.403Z,100.00
2023-01-22T03:22:06.774Z,100.00
2023-01-22T03:24:33.592Z,100.00
2023-01-22T03:27:00.626Z,100.00
2023-01-22T03:29:27.763Z,100.00
2023-01-22T03:31:54.701Z,100.00
2023-01-22T03:34:23.809Z,100.00
2023-01-22T03:36:50.644Z,100.00
2023-01-22T03:39:17.529Z,100.00
2023-01-22T03:41:44.339Z,100.00
2023-01-22T03:44:12.119Z,100.00
2023-01-22T03:46:40.417Z,100.00
2023-01-22T03:49:08.757Z,100.00
2023-01-22T03:51:36.777Z,100.00
2023-01-22T03:54:04.027Z,100.00
2023-01-22T03:56:31.885Z,100.00
2023-01-22T03:58:58.942Z,100.00
2023-01-22T04:01:28.570Z,100.00
2023-01-22T04:03:55.911Z,100.00
2023-01-22T04:06:23.947Z,100.00
2023-01-22T04:08:52.770Z,100.00
2023-01-22T04:11:19.917Z,100.00
2023-01-22T04:13:47.086Z,100.00
2023-01-22T04:16:16.264Z,100.00
2023-01-22T04:18:43.472Z,100.00
2023-01-22T04:21:10.853Z,100.00
2023-01-22T04:23:37.650Z,100.00
2023-01-22T04:26:04.688Z,100.00
2023-01-22T04:28:31.511Z,100.00
2023-01-22T04:30:58.592Z,100.00
2023-01-22T04:33:25.586Z,100.00
2023-01-22T04:35:54.989Z,100.00
2023-01-22T04:38:22.242Z,100.00
2023-01-22T04:40:49.084Z,100.00
2023-01-22T04:43:16.046Z,100.00
2023-01-22T04:45:43.095Z,100.00
2023-01-22T04:48:11.309Z,100.00
2023-01-22T04:50:38.604Z,100.00
2023-01-22T04:53:05.593Z,100.00
2023-01-22T04:55:32.704Z,100.00
2023-01-22T04:58:01.052Z,100.00
2023-01-22T05:00:31.104Z,100.00
2023-01-22T05:03:00.851Z,100.00
2023-01-22T05:05:29.575Z,100.00
2023-01-22T05:07:56.724Z,100.00
2023-01-22T05:10:24.527Z,100.00
2023-01-22T05:12:51.842Z,100.00
2023-01-22T05:15:24.332Z,100.00
2023-01-22T05:17:53.211Z,100.00
2023-01-22T05:20:21.267Z,100.00
2023-01-22T05:22:48.914Z,100.00
2023-01-22T05:25:15.853Z,100.00
2023-01-22T05:27:43.493Z,100.00
2023-01-22T05:30:12.498Z,100.00
2023-01-22T05:32:39.503Z,100.00
2023-01-22T05:35:07.297Z,100.00
2023-01-22T05:37:34.220Z,100.00
2023-01-22T05:40:01.138Z,100.00
2023-01-22T05:42:27.941Z,100.00
2023-01-22T05:44:54.795Z,100.00
2023-01-22T05:47:21.773Z,100.00
2023-01-22T05:49:48.585Z,100.00
2023-01-22T05:52:15.427Z,100.00
2023-01-22T05:54:42.291Z,100.00
2023-01-22T05:57:09.101Z,100.00
2023-01-22T05:59:35.896Z,100.00
2023-01-22T06:02:03.174Z,100.00
2023-01-22T06:04:30.295Z,100.00
2023-01-22T06:06:57.570Z,100.00
2023-01-22T06:09:25.214Z,100.00
2023-01-22T06:11:52.111Z,100.00
2023-01-22T06:14:19.333Z,100.00
2023-01-22T06:16:46.460Z,100.00
2023-01-22T06:19:13.638Z,100.00
2023-01-22T06:21:41.136Z,100.00
2023-01-22T06:24:08.125Z,100.00
2023-01-22T06:26:35.138Z,100.00
2023-01-22T06:29:01.975Z,100.00
2023-01-22T06:31:28.935Z,100.00
2023-01-22T06:33:55.921Z,100.00
2023-01-22T06:36:22.761Z,100.00
2023-01-22T06:38:49.863Z,100.00
2023-01-22T06:41:16.657Z,100.00
2023-01-22T06:43:43.533Z,100.00
2023-01-22T06:46:10.860Z,100.00
2023-01-22T06:48:37.703Z,100.00
2023-01-22T06:51:04.843Z,100.00
2023-01-22T06:53:31.764Z,100.00
2023-01-22T06:56:02.125Z,100.00
2023-01-22T06:58:29.930Z,100.00
2023-01-22T07:01:05.082Z,100.00
2023-01-22T07:03:32.096Z,100.00
2023-01-22T07:06:02.539Z,100.00
2023-01-22T07:08:32.327Z,100.00
2023-01-22T07:11:00.204Z,100.00
2023-01-22T07:13:27.491Z,100.00
2023-01-22T07:15:55.069Z,100.00
2023-01-22T07:18:23.958Z,100.00
2023-01-22T07:20:51.650Z,100.00
2023-01-22T07:23:18.618Z,100.00
2023-01-22T07:25:45.897Z,100.00
2023-01-22T07:28:15.248Z,100.00
2023-01-22T07:30:44.404Z,100.00
2023-01-22T07:33:12.353Z,100.00
2023-01-22T07:35:40.220Z,100.00
2023-01-22T07:38:08.138Z,100.00
2023-01-22T07:40:35.639Z,100.00
2023-01-22T07:43:07.442Z,100.00
2023-01-22T07:45:35.650Z,100.00
2023-01-22T07:48:04.187Z,100.00
2023-01-22T07:50:32.474Z,100.00
2023-01-22T07:53:00.874Z,100.00
2023-01-22T07:55:28.081Z,100.00
2023-01-22T07:58:04.923Z,100.00
2023-01-22T08:00:35.092Z,100.00
2023-01-22T08:03:04.564Z,100.00
2023-01-22T08:05:31.519Z,100.00
2023-01-22T08:07:58.783Z,100.00
2023-01-22T08:10:25.819Z,100.00
2023-01-22T08:12:52.647Z,100.00
2023-01-22T08:15:19.530Z,100.00
2023-01-22T08:17:50.285Z,100.00
2023-01-22T08:20:18.141Z,100.00
2023-01-22T08:22:45.623Z,100.00
2023-01-22T08:25:12.779Z,100.00
2023-01-22T08:27:39.670Z,100.00
2023-01-22T08:30:08.135Z,100.00
2023-01-22T08:32:35.418Z,100.00
2023-01-22T08:35:02.281Z,100.00
2023-01-22T08:37:29.115Z,100.00
2023-01-22T08:39:56.395Z,100.00
2023-01-22T08:42:23.201Z,100.00
2023-01-22T08:44:49.990Z,100.00
2023-01-22T08:47:16.856Z,100.00
2023-01-22T08:49:43.703Z,100.00
2023-01-22T08:52:10.784Z,100.00
2023-01-22T08:54:37.616Z,100.00
2023-01-22T08:57:04.704Z,100.00
2023-01-22T08:59:31.770Z,100.00
2023-01-22T09:02:02.221Z,100.00
2023-01-22T09:04:29.234Z,100.00
2023-01-22T09:06:56.401Z,100.00
2023-01-22T09:09:23.388Z,100.00
2023-01-22T09:11:50.300Z,100.00
2023-01-22T09:14:17.223Z,100.00
2023-01-22T09:16:44.170Z,100.00
2023-01-22T09:19:11.918Z,100.00
2023-01-22T09:21:39.202Z,100.00
2023-01-22T09:24:07.787Z,100.00
2023-01-22T09:26:35.474Z,100.00
2023-01-22T09:29:06.034Z,100.00
2023-01-22T09:31:38.015Z,100.00
2023-01-22T09:34:05.180Z,100.00
2023-01-22T09:36:32.420Z,100.00
2023-01-22T09:38:59.406Z,100.00
2023-01-22T09:41:39.180Z,100.00
2023-01-22T09:44:24.697Z,100.00
2023-01-22T09:46:57.804Z,100.00
2023-01-22T09:49:33.396Z,100.00
2023-01-22T09:52:04.958Z,100.00
2023-01-22T09:54:33.505Z,100.00
2023-01-22T09:57:05.803Z,100.00
2023-01-22T09:59:51.737Z,100.00
2023-01-22T10:02:35.337Z,100.00
2023-01-22T10:05:26.387Z,100.00
2023-01-22T10:08:19.887Z,100.00
2023-01-22T10:10:47.176Z,100.00
2023-01-22T10:13:30.387Z,100.00
2023-01-22T10:15:57.397Z,100.00
2023-01-22T10:18:51.027Z,100.00
2023-01-22T10:21:42.567Z,100.00
2023-01-22T10:24:13.404Z,100.00
2023-01-22T10:26:54.702Z,100.00
2023-01-22T10:29:33.129Z,100.00
2023-01-22T10:32:17.241Z,100.00
2023-01-22T10:34:44.224Z,100.00
2023-01-22T10:37:18.158Z,100.00
2023-01-22T10:39:47.963Z,100.00
2023-01-22T10:42:21.214Z,100.00
2023-01-22T10:44:48.380Z,100.00
2023-01-22T10:47:27.504Z,100.00
2023-01-22T10:50:24.053Z,100.00
2023-01-22T10:52:54.946Z,100.00
2023-01-22T10:55:32.317Z,100.00
2023-01-22T10:58:04.529Z,100.00
2023-01-22T11:00:51.531Z,100.00
2023-01-22T11:03:30.219Z,100.00
2023-01-22T11:06:03.949Z,100.00
2023-01-22T11:08:44.416Z,100.00
2023-01-22T11:11:15.695Z,100.00
2023-01-22T11:14:03.200Z,100.00
2023-01-22T11:16:36.439Z,100.00
2023-01-22T11:19:32.382Z,100.00
2023-01-22T11:22:13.596Z,100.00
2023-01-22T11:24:47.619Z,100.00
2023-01-22T11:27:14.845Z,100.00
2023-01-22T11:30:10.168Z,100.00
2023-01-22T11:32:45.628Z,100.00
2023-01-22T11:35:37.297Z,100.00
2023-01-22T11:38:10.251Z,100.00
2023-01-22T11:40:58.153Z,100.00
2023-01-22T11:44:06.544Z,100.00
2023-01-22T11:47:13.235Z,100.00
2023-01-22T11:49:46.336Z,100.00
2023-01-22T11:52:56.965Z,100.00
2023-01-22T11:55:49.737Z,100.00
2023-01-22T11:58:33.610Z,100.00
2023-01-22T12:01:14.460Z,100.00
2023-01-22T12:04:17.044Z,100.00
2023-01-22T12:07:24.029Z,100.00
2023-01-22T12:10:08.977Z,100.00
2023-01-22T12:12:47.373Z,100.00
2023-01-22T12:15:52.274Z,100.00
2023-01-22T12:19:26.933Z,100.00
2023-01-22T12:22:26.369Z,100.00
2023-01-22T12:25:01.569Z,100.00
2023-01-22T12:27:49.148Z,100.00
2023-01-22T12:30:54.399Z,100.00
2023-01-22T12:33:27.083Z,100.00
2023-01-22T12:35:58.956Z,100.00
2023-01-22T12:38:35.139Z,100.00
2023-01-22T12:41:54.836Z,100.00
2023-01-22T12:44:30.908Z,100.00
2023-01-22T12:47:21.944Z,100.00
2023-01-22T12:49:52.618Z,100.00
2023-01-22T12:52:47.664Z,100.00
2023-01-22T12:55:35.554Z,100.00
2023-01-22T12:58:03.842Z,100.00
2023-01-22T13:00:36.791Z,100.00
2023-01-22T13:03:30.983Z,100.00
2023-01-22T13:05:59.742Z,100.00
2023-01-22T13:08:28.230Z,100.00
2023-01-22T13:11:00.106Z,100.00
2023-01-22T13:13:44.774Z,100.00
2023-01-22T13:16:26.994Z,100.00
2023-01-22T13:18:58.520Z,100.00
2023-01-22T13:21:33.611Z,100.00
2023-01-22T13:24:13.277Z,100.00
2023-01-22T13:26:41.597Z,100.00
2023-01-22T13:29:28.790Z,100.00
2023-01-22T13:32:03.145Z,100.00
2023-01-22T13:34:30.968Z,100.00
2023-01-22T13:36:59.044Z,100.00
2023-01-22T13:39:31.546Z,100.00
2023-01-22T13:42:02.008Z,100.00
2023-01-22T13:44:35.259Z,100.00
2023-01-22T13:47:03.076Z,100.00
2023-01-22T13:49:33.302Z,100.00
2023-01-22T13:52:07.957Z,100.00
2023-01-22T13:54:43.204Z,100.00
2023-01-22T13:57:16.688Z,100.00
2023-01-22T14:00:00.216Z,100.00
2023-01-22T14:02:33.299Z,100.00
2023-01-22T14:05:00.798Z,100.00
2023-01-22T14:07:39.773Z,99.85
2023-01-22T14:10:14.823Z,99.80
2023-01-22T14:12:41.817Z,99.96
2023-01-22T14:15:21.325Z,99.49
2023-01-22T14:17:50.412Z,99.04
2023-01-22T14:20:17.867Z,99.55
2023-01-22T14:22:45.026Z,99.02
2023-01-22T14:25:11.840Z,98.93
2023-01-22T14:27:48.482Z,98.97
2023-01-22T14:30:19.421Z,98.76
2023-01-22T14:32:46.614Z,98.20
2023-01-22T14:35:26.657Z,97.64
2023-01-22T14:37:54.758Z,97.95
2023-01-22T14:40:24.948Z,98.01
2023-01-22T14:42:52.870Z,97.82
2023-01-22T14:45:20.899Z,98.16
2023-01-22T14:47:52.765Z,98.03
2023-01-22T14:50:23.828Z,97.92
2023-01-22T14:52:51.798Z,97.75
2023-01-22T14:55:19.885Z,97.61
2023-01-22T14:57:46.703Z,97.91
2023-01-22T15:00:18.094Z,98.27
2023-01-22T15:02:45.471Z,98.03
2023-01-22T15:05:12.703Z,98.27
2023-01-22T15:07:39.678Z,98.40
2023-01-22T15:10:08.448Z,98.31
2023-01-22T15:12:35.242Z,98.40
2023-01-22T15:15:02.338Z,98.32
2023-01-22T15:17:29.146Z,98.11
2023-01-22T15:19:57.312Z,98.19
2023-01-22T15:22:24.174Z,98.29
2023-01-22T15:24:50.971Z,98.23
2023-01-22T15:27:18.974Z,98.34
2023-01-22T15:29:46.708Z,98.34
2023-01-22T15:32:14.418Z,98.45
2023-01-22T15:34:41.839Z,98.38
2023-01-22T15:37:09.344Z,98.43
2023-01-22T15:39:36.107Z,98.44
2023-01-22T15:42:02.915Z,98.61
2023-01-22T15:44:29.761Z,98.54
2023-01-22T15:46:58.968Z,98.56
2023-01-22T15:49:25.809Z,98.53
2023-01-22T15:51:53.099Z,98.80
2023-01-22T15:54:20.099Z,98.64
2023-01-22T15:56:47.255Z,98.49
2023-01-22T15:59:14.102Z,98.49
2023-01-22T16:01:41.528Z,98.46
2023-01-22T16:04:09.820Z,98.88
2023-01-22T16:06:37.030Z,99.07
2023-01-22T16:09:07.497Z,98.88
2023-01-22T16:11:35.317Z,98.91
2023-01-22T16:14:02.757Z,99.00
2023-01-22T16:16:37.861Z,99.00
2023-01-22T16:19:08.130Z,99.03
2023-01-22T16:21:35.631Z,99.00
2023-01-22T16:24:03.503Z,99.23
2023-01-22T16:26:33.228Z,99.10
2023-01-22T16:29:04.037Z,99.25
2023-01-22T16:31:34.609Z,99.22
2023-01-22T16:34:10.148Z,99.23
2023-01-22T16:36:37.636Z,99.36
2023-01-22T16:39:05.861Z,99.27
2023-01-22T16:41:37.257Z,99.20
2023-01-22T16:44:10.995Z,99.23
2023-01-22T16:46:43.192Z,99.42
2023-01-22T16:49:21.611Z,99.49
2023-01-22T16:51:52.140Z,99.67
2023-01-22T16:54:22.396Z,99.60
2023-01-22T16:56:50.171Z,99.44
2023-01-22T16:59:17.985Z,99.73
2023-01-22T17:01:45.520Z,99.84
2023-01-22T17:04:12.588Z,99.86
2023-01-22T17:06:43.387Z,99.92
2023-01-22T17:09:20.674Z,100.00
2023-01-22T17:12:02.730Z,100.00
2023-01-22T17:14:35.249Z,100.00
2023-01-22T17:17:04.133Z,100.00
2023-01-22T17:19:31.193Z,100.00
2023-01-22T17:21:59.466Z,100.00
2023-01-22T17:24:28.767Z,100.00
2023-01-22T17:26:58.114Z,100.00
2023-01-22T17:29:26.772Z,100.00
2023-01-22T17:31:53.702Z,100.00
2023-01-22T17:34:20.642Z,100.00
2023-01-22T17:36:50.684Z,100.00
2023-01-22T17:39:18.462Z,100.00
2023-01-22T17:41:45.240Z,100.00
2023-01-22T17:44:12.780Z,100.00
2023-01-22T17:46:40.287Z,100.00
2023-01-22T17:49:07.487Z,100.00
2023-01-22T17:51:35.612Z,100.00
2023-01-22T17:54:04.588Z,100.00
2023-01-22T17:56:36.081Z,100.00
2023-01-22T17:59:05.875Z,100.00
2023-01-22T18:01:35.265Z,100.00
2023-01-22T18:04:06.888Z,100.00
2023-01-22T18:06:34.904Z,100.00
2023-01-22T18:09:03.063Z,100.00
2023-01-22T18:11:30.573Z,100.00
2023-01-22T18:14:18.283Z,100.00
2023-01-22T18:16:46.060Z,100.00
2023-01-22T18:19:12.910Z,100.00
2023-01-22T18:21:40.543Z,100.00
2023-01-22T18:24:10.668Z,100.00
2023-01-22T18:26:37.665Z,100.00
2023-01-22T18:29:05.567Z,100.00
2023-01-22T18:31:32.891Z,100.00
2023-01-22T18:34:03.860Z,100.00
2023-01-22T18:36:35.581Z,100.00
2023-01-22T18:39:11.035Z,100.00
2023-01-22T18:41:40.112Z,100.00
2023-01-22T18:44:08.853Z,100.00
2023-01-22T18:46:41.436Z,100.00
2023-01-22T18:49:12.867Z,100.00
2023-01-22T18:51:42.117Z,100.00
2023-01-22T18:54:09.224Z,100.00
2023-01-22T18:56:37.602Z,100.00
2023-01-22T18:59:05.893Z,100.00
2023-01-22T19:01:38.232Z,100.00
2023-01-22T19:04:08.600Z,100.00
2023-01-22T19:06:38.049Z,100.00
2023-01-22T19:09:14.291Z,100.00
2023-01-22T19:11:44.762Z,100.00
2023-01-22T19:14:18.433Z,100.00
2023-01-22T19:16:49.859Z,100.00
2023-01-22T19:19:17.422Z,100.00
2023-01-22T19:21:47.342Z,100.00
2023-01-22T19:24:18.145Z,100.00
2023-01-22T19:26:46.845Z,100.00
2023-01-22T19:29:19.651Z,100.00
2023-01-22T19:31:52.339Z,100.00
2023-01-22T19:34:25.511Z,100.00
2023-01-22T19:36:56.621Z,100.00
2023-01-22T19:39:28.483Z,100.00
2023-01-22T19:41:55.798Z,100.00
2023-01-22T19:44:23.243Z,100.00
2023-01-22T19:46:50.243Z,100.00
2023-01-22T19:49:17.053Z,100.00
2023-01-22T19:51:44.481Z,100.00
2023-01-22T19:54:11.855Z,100.00
2023-01-22T19:56:40.378Z,100.00
2023-01-22T19:59:12.636Z,100.00
2023-01-22T20:01:39.564Z,100.00
2023-01-22T20:04:12.109Z,100.00
2023-01-22T20:06:39.780Z,100.00
2023-01-22T20:09:06.674Z,100.00
2023-01-22T20:11:33.872Z,100.00
2023-01-22T20:14:00.850Z,100.00
2023-01-22T20:16:30.008Z,100.00
2023-01-22T20:18:58.297Z,100.00
2023-01-22T20:21:27.305Z,100.00
2023-01-22T20:23:54.975Z,100.00
2023-01-22T20:26:23.057Z,100.00
2023-01-22T20:28:50.858Z,100.00
2023-01-22T20:31:23.596Z,100.00
2023-01-22T20:33:52.719Z,100.00
2023-01-22T20:36:21.626Z,100.00
2023-01-22T20:38:52.597Z,100.00
2023-01-22T20:41:20.173Z,100.00
2023-01-22T20:43:47.557Z,100.00
2023-01-22T20:46:24.491Z,100.00
2023-01-22T20:48:52.263Z,100.00
2023-01-22T20:51:24.776Z,100.00
2023-01-22T20:53:54.048Z,100.00
2023-01-22T20:56:27.346Z,100.00
2023-01-22T20:59:05.771Z,100.00
2023-01-22T21:01:33.314Z,100.00
2023-01-22T21:04:01.560Z,100.00
2023-01-22T21:06:31.622Z,100.00
2023-01-22T21:09:01.352Z,100.00
2023-01-22T21:11:33.489Z,100.00
2023-01-22T21:14:04.214Z,100.00
2023-01-22T21:16:34.425Z,100.00
2023-01-22T21:19:29.304Z,100.00
2023-01-22T21:21:57.487Z,100.00
2023-01-22T21:24:24.907Z,100.00
2023-01-22T21:26:51.790Z,100.00
2023-01-22T21:29:22.416Z,100.00
2023-01-22T21:31:51.314Z,100.00
2023-01-22T21:34:21.920Z,100.00
2023-01-22T21:36:51.191Z,100.00
2023-01-22T21:39:22.019Z,100.00
2023-01-22T21:41:48.958Z,100.00
2023-01-22T21:44:38.204Z,100.00
2023-01-22T21:47:05.663Z,100.00
2023-01-22T21:49:35.300Z,100.00
2023-01-22T21:52:05.904Z,100.00
2023-01-22T21:54:41.525Z,100.00
2023-01-22T21:57:13.705Z,100.00
2023-01-22T21:59:40.693Z,100.00
2023-01-22T22:02:12.222Z,100.00
2023-01-22T22:04:39.289Z,100.00
2023-01-22T22:07:06.068Z,100.00
2023-01-22T22:09:32.971Z,100.00
2023-01-22T22:12:02.836Z,100.00
2023-01-22T22:14:33.207Z,100.00
2023-01-22T22:17:00.263Z,100.00
2023-01-22T22:19:29.036Z,100.00
2023-01-22T22:21:55.933Z,100.00
2023-01-22T22:24:22.779Z,100.00
2023-01-22T22:26:49.828Z,100.00
2023-01-22T22:29:16.607Z,100.00
2023-01-22T22:31:43.529Z,100.00
2023-01-22T22:34:10.396Z,100.00
2023-01-22T22:36:37.222Z,100.00
2023-01-22T22:39:06.675Z,100.00
2023-01-22T22:41:36.437Z,100.00
2023-01-22T22:44:04.293Z,100.00
2023-01-22T22:46:35.891Z,100.00
2023-01-22T22:49:04.514Z,100.00
2023-01-22T22:51:37.487Z,100.00
2023-01-22T22:54:18.302Z,100.00
2023-01-22T22:56:47.636Z,100.00
2023-01-22T22:59:16.034Z,100.00
2023-01-22T23:01:43.036Z,100.00
2023-01-22T23:04:12.925Z,100.00
2023-01-22T23:06:43.123Z,100.00
2023-01-22T23:09:13.399Z,100.00
2023-01-22T23:11:40.736Z,100.00
2023-01-22T23:14:08.635Z,100.00
2023-01-22T23:16:39.033Z,100.00
2023-01-22T23:19:15.313Z,100.00
2023-01-22T23:21:43.036Z,100.00
2023-01-22T23:24:13.590Z,100.00
2023-01-22T23:26:42.949Z,100.00
2023-01-22T23:29:14.883Z,100.00
2023-01-22T23:31:42.343Z,100.00
2023-01-22T23:34:14.315Z,100.00
2023-01-22T23:36:44.554Z,100.00
2023-01-22T23:39:17.436Z,100.00
2023-01-22T23:41:45.160Z,100.00
2023-01-22T23:44:12.314Z,100.00
2023-01-22T23:46:39.489Z,100.00
2023-01-22T23:49:06.418Z,100.00
2023-01-22T23:51:33.636Z,100.00
2023-01-22T23:54:00.756Z,100.00
2023-01-22T23:56:32.559Z,100.00
2023-01-22T23:58:59.884Z,100.00
